Island Princess — ZCDG4 — position and weather

sailwx.info

Track history (hours):
 
Tides and Currents Weather Stations Pressure Air Temp Water Temp Dewpoint Dewpoint Depression Visibility Wind Speed Wind Dir Waves Ship Positions

Island Princess

Operator: Princess Cruises

Last reported at 2017-May-27 07:00 UTC. Time now 2017-May-28 12:17 UTC.
Position N 56°24' W 134°24'.

Type: Ship. MMSI: 310384000.

Wind from 290 at 12 knots

Barometer 1022.3 mb
Air temperature 9.0 ° C
Dewpoint 4.5 ° C
Water temperature 12.0 ° C

Date/timePositionNaut miles runAvg speedWind from/ knotsBaromVisibWave heightAir tempDewpointWater temp
2017-May-27 07:00N 56°24' W 134°24'197 7.9 290 / 121022.3 9.0 4.512.0
2017-May-26 06:00N 53°48' W 130°54'5714.2 300 / 421016.510.8 8.5 7.412.0
2017-May-26 02:00N 52°54' W 130°24'7813.7 330 / 301017.710.8 11.5 7.411.0
2017-May-25 20:19N 51°48' W 129°17'413.0
2017-May-25 20:00N 51°45' W 129°12'812.9
2017-May-25 19:24N 51°39' W 129°04'512.9
2017-May-25 19:00N 51°35' W 128°58'613.1
2017-May-25 18:31N 51°31' W 128°51'713.7
2017-May-25 18:00N 51°25' W 128°44'3252.8
2017-May-25 18:00N 51°24' W 128°48'816.8 340 / 301016.210.8 10.0 8.112.0
2017-May-25 17:30N 51°20' W 128°36'714.0
2017-May-25 17:00N 51°16' W 128°27'714.0
2017-May-25 16:30N 51°12' W 128°18'714.2
2017-May-25 16:00N 51°08' W 128°09'714.1
2017-May-25 15:30N 51°04' W 127°60'714.5
2017-May-25 15:00N 51°01' W 127°49'510.5
2017-May-25 14:30N 50°57' W 127°43'1212.2
2017-May-25 13:30N 50°50' W 127°27'612.4
2017-May-25 13:00N 50°47' W 127°18'612.3
2017-May-25 12:30N 50°45' W 127°09'713.9
2017-May-25 12:00N 50°43' W 126°59'913.2
2017-May-25 11:19N 50°38' W 126°47'513.7
2017-May-25 10:59N 50°35' W 126°42'612.9
2017-May-25 10:29N 50°30' W 126°34'4414.6
2017-May-25 07:29N 50°20' W 125°27'714.0
2017-May-25 07:00N 50°14' W 125°23'713.5
2017-May-25 06:30N 50°08' W 125°21'612.5
2017-May-25 06:00N 50°03' W 125°14'815.8
2017-May-25 05:31N 49°57' W 125°07'1018.9
2017-May-25 05:00N 49°50' W 124°56'918.5
2017-May-25 04:31N 49°44' W 124°47'1018.5
2017-May-25 03:59N 49°36' W 124°37'918.7
2017-May-25 03:30N 49°29' W 124°28'2818.3
2017-May-25 01:56N 49°21' W 123°46'819.3
2017-May-25 01:30N 49°20' W 123°33'1019.6
2017-May-25 01:00N 49°19' W 123°18'714.7
2017-May-25 00:30N 49°18' W 123°07'1 2.1
2017-May-24 23:58N 49°17' W 123°06'0 0.0
2017-May-24 23:28N 49°17' W 123°06'0 0.0
2017-May-24 22:57N 49°17' W 123°06'0 0.0
2017-May-24 22:30N 49°17' W 123°06'0 0.0
2017-May-24 22:01N 49°17' W 123°06'0 0.0
2017-May-24 21:29N 49°17' W 123°06'0 0.0
2017-May-24 20:58N 49°17' W 123°06'0 0.0
2017-May-24 20:28N 49°17' W 123°06'0 0.0
2017-May-24 20:00N 49°17' W 123°06'0 0.0
2017-May-24 19:24N 49°17' W 123°06'0 0.0
2017-May-24 19:00N 49°17' W 123°06'0 0.0
2017-May-24 18:30N 49°17' W 123°06'0 0.0
2017-May-24 17:58N 49°17' W 123°06'0 0.0
2017-May-24 17:30N 49°17' W 123°06'0 0.0
2017-May-24 16:59N 49°17' W 123°06'0 0.0
2017-May-24 16:29N 49°17' W 123°06'0 0.0
2017-May-24 15:59N 49°17' W 123°06'0 0.0
2017-May-24 15:28N 49°17' W 123°06'0 0.0
2017-May-24 14:55N 49°17' W 123°06'0 0.0
2017-May-24 14:28N 49°17' W 123°06'0 0.3
2017-May-24 13:30N 49°18' W 123°06'4 7.9
2017-May-24 13:00N 49°19' W 123°12'510.8
2017-May-24 12:31N 49°18' W 123°20'612.1
2017-May-24 11:59N 49°18' W 123°30'612.9
2017-May-24 11:29N 49°19' W 123°40'712.3
2017-May-24 10:57N 49°20' W 123°50'2013.3
2017-May-24 09:27N 49°26' W 124°19'716.0
2017-May-24 09:00N 49°29' W 124°29'816.4
2017-May-24 08:30N 49°36' W 124°36'815.9
2017-May-24 08:00N 49°42' W 124°45'816.1
2017-May-24 07:30N 49°48' W 124°53'815.6
2017-May-24 07:00N 49°53' W 125°02'815.8
2017-May-24 06:30N 49°58' W 125°11'714.1
2017-May-24 06:00N 50°05' W 125°16'612.2
2017-May-24 05:31N 50°09' W 125°22'612.6
2017-May-24 05:00N 50°16' W 125°24'4 8.8
2017-May-24 04:30N 50°20' W 125°26'13 9.8
2017-May-24 03:12N 50°22' W 125°45'3713.5
2017-May-24 00:29N 50°32' W 126°41'914.8
2017-May-23 23:54N 50°34' W 126°54'911.7
2017-May-23 23:09N 50°37' W 127°07'213.1
2017-May-23 23:00N 50°38' W 127°10'816.0
2017-May-23 22:30N 50°44' W 127°19'815.8
2017-May-23 22:00N 50°50' W 127°27'2263.7
2017-May-23 22:00N 50°48' W 127°24'1020.6 270 / 281019.310.8 10.5 6.611.0
2017-May-23 21:30N 50°53' W 127°37'714.2
2017-May-23 21:00N 50°58' W 127°46'5 9.0
2017-May-23 20:30N 51°01' W 127°52'612.9
2017-May-23 20:00N 51°04' W 128°00'713.9
2017-May-23 19:30N 51°08' W 128°09'714.8
2017-May-23 19:00N 51°12' W 128°19'815.5
2017-May-23 18:30N 51°17' W 128°29'815.3
2017-May-23 18:00N 51°22' W 128°39'11671.6
2017-May-23 18:00N 51°12' W 128°30'2040.9 280 / 301016.410.8 10.0 7.912.0
2017-May-23 17:30N 51°28' W 128°48'1020.1
2017-May-23 17:00N 51°36' W 128°59'1019.8
2017-May-23 16:30N 51°43' W 129°10'1019.9
2017-May-23 16:00N 51°50' W 129°20'3014.8
2017-May-23 14:00N 52°12' W 129°54'13218.9 230 / 401012.310.8 10.5 9.510.0
2017-May-23 07:00N 54°18' W 131°00'180 7.5 180 / 331014.2 2.2 10.010.010.0
2017-May-22 07:00N 56°36' W 134°24'6917.2 180 / 301020.210.8 8.5 7.5 9.0
2017-May-22 03:00N 57°42' W 133°48'84 4.2 180 / 351018.010.8 10.0 8.5 7.0
2017-May-21 07:00N 58°54' W 135°12'3 0.2 010 / 81012.110.8 8.5 7.510.0
2017-May-20 11:00N 58°54' W 135°06'4210.6 180 / 151019.110.8 9.5 8.611.0
2017-May-20 07:00N 58°12' W 134°54'98 4.9 160 / 171020.110.8 8.5 5.510.0
2017-May-19 11:00N 58°24' W 138°00'9824.6 200 / 71019.310.8 7.0 4.910.0
2017-May-19 07:00N 59°54' W 139°18'74 6.1 180 / 71019.010.8 7.0 6.013.0
2017-May-18 19:00N 59°30' W 141°36'6416.0 120 / 201017.210.8 8.5 5.110.0
2017-May-18 15:00N 59°30' W 143°42'6817.0 130 / 61015.310.8 7.5 3.2 9.0
2017-May-18 11:00N 59°54' W 145°48'   120 / 101015.4 5.4 7.0 6.0 9.0
Track history (hours):
 
Tides and Currents Weather Stations Pressure Air Temp Water Temp Dewpoint Dewpoint Depression Visibility Wind Speed Wind Dir Waves Ship Positions

Island Princess

Operator: Princess Cruises

Last reported at 2017-May-27 07:00 UTC. Time now 2017-May-28 12:17 UTC.
Position N 56°24' W 134°24'.

Type: Ship. MMSI: 310384000.

Wind from 290 at 12 knots

Barometer 1022.3 mb
Air temperature 9.0 ° C
Dewpoint 4.5 ° C
Water temperature 12.0 ° C

Date/timePositionNaut miles runAvg speedWind from/ knotsBaromVisibWave heightAir tempDewpointWater temp
2017-May-27 07:00N 56°24' W 134°24'197 7.9 290 / 121022.3 9.0 4.512.0
2017-May-26 06:00N 53°48' W 130°54'5714.2 300 / 421016.510.8 8.5 7.412.0
2017-May-26 02:00N 52°54' W 130°24'7813.7 330 / 301017.710.8 11.5 7.411.0
2017-May-25 20:19N 51°48' W 129°17'413.0
2017-May-25 20:00N 51°45' W 129°12'812.9
2017-May-25 19:24N 51°39' W 129°04'512.9
2017-May-25 19:00N 51°35' W 128°58'613.1
2017-May-25 18:31N 51°31' W 128°51'713.7
2017-May-25 18:00N 51°25' W 128°44'3252.8
2017-May-25 18:00N 51°24' W 128°48'816.8 340 / 301016.210.8 10.0 8.112.0
2017-May-25 17:30N 51°20' W 128°36'714.0
2017-May-25 17:00N 51°16' W 128°27'714.0
2017-May-25 16:30N 51°12' W 128°18'714.2
2017-May-25 16:00N 51°08' W 128°09'714.1
2017-May-25 15:30N 51°04' W 127°60'714.5
2017-May-25 15:00N 51°01' W 127°49'510.5
2017-May-25 14:30N 50°57' W 127°43'1212.2
2017-May-25 13:30N 50°50' W 127°27'612.4
2017-May-25 13:00N 50°47' W 127°18'612.3
2017-May-25 12:30N 50°45' W 127°09'713.9
2017-May-25 12:00N 50°43' W 126°59'913.2
2017-May-25 11:19N 50°38' W 126°47'513.7
2017-May-25 10:59N 50°35' W 126°42'612.9
2017-May-25 10:29N 50°30' W 126°34'4414.6
2017-May-25 07:29N 50°20' W 125°27'714.0
2017-May-25 07:00N 50°14' W 125°23'713.5
2017-May-25 06:30N 50°08' W 125°21'612.5
2017-May-25 06:00N 50°03' W 125°14'815.8
2017-May-25 05:31N 49°57' W 125°07'1018.9
2017-May-25 05:00N 49°50' W 124°56'918.5
2017-May-25 04:31N 49°44' W 124°47'1018.5
2017-May-25 03:59N 49°36' W 124°37'918.7
2017-May-25 03:30N 49°29' W 124°28'2818.3
2017-May-25 01:56N 49°21' W 123°46'819.3
2017-May-25 01:30N 49°20' W 123°33'1019.6
2017-May-25 01:00N 49°19' W 123°18'714.7
2017-May-25 00:30N 49°18' W 123°07'1 2.1
2017-May-24 23:58N 49°17' W 123°06'0 0.0
2017-May-24 23:28N 49°17' W 123°06'0 0.0
2017-May-24 22:57N 49°17' W 123°06'0 0.0
2017-May-24 22:30N 49°17' W 123°06'0 0.0
2017-May-24 22:01N 49°17' W 123°06'0 0.0
2017-May-24 21:29N 49°17' W 123°06'0 0.0
2017-May-24 20:58N 49°17' W 123°06'0 0.0
2017-May-24 20:28N 49°17' W 123°06'0 0.0
2017-May-24 20:00N 49°17' W 123°06'0 0.0
2017-May-24 19:24N 49°17' W 123°06'0 0.0
2017-May-24 19:00N 49°17' W 123°06'0 0.0
2017-May-24 18:30N 49°17' W 123°06'0 0.0
2017-May-24 17:58N 49°17' W 123°06'0 0.0
2017-May-24 17:30N 49°17' W 123°06'0 0.0
2017-May-24 16:59N 49°17' W 123°06'0 0.0
2017-May-24 16:29N 49°17' W 123°06'0 0.0
2017-May-24 15:59N 49°17' W 123°06'0 0.0
2017-May-24 15:28N 49°17' W 123°06'0 0.0
2017-May-24 14:55N 49°17' W 123°06'0 0.0
2017-May-24 14:28N 49°17' W 123°06'0 0.3
2017-May-24 13:30N 49°18' W 123°06'4 7.9
2017-May-24 13:00N 49°19' W 123°12'510.8
2017-May-24 12:31N 49°18' W 123°20'612.1
2017-May-24 11:59N 49°18' W 123°30'612.9
2017-May-24 11:29N 49°19' W 123°40'712.3
2017-May-24 10:57N 49°20' W 123°50'2013.3
2017-May-24 09:27N 49°26' W 124°19'716.0
2017-May-24 09:00N 49°29' W 124°29'816.4
2017-May-24 08:30N 49°36' W 124°36'815.9
2017-May-24 08:00N 49°42' W 124°45'816.1
2017-May-24 07:30N 49°48' W 124°53'815.6
2017-May-24 07:00N 49°53' W 125°02'815.8
2017-May-24 06:30N 49°58' W 125°11'714.1
2017-May-24 06:00N 50°05' W 125°16'612.2
2017-May-24 05:31N 50°09' W 125°22'612.6
2017-May-24 05:00N 50°16' W 125°24'4 8.8
2017-May-24 04:30N 50°20' W 125°26'13 9.8
2017-May-24 03:12N 50°22' W 125°45'3713.5
2017-May-24 00:29N 50°32' W 126°41'914.8
2017-May-23 23:54N 50°34' W 126°54'911.7
2017-May-23 23:09N 50°37' W 127°07'213.1
2017-May-23 23:00N 50°38' W 127°10'816.0
2017-May-23 22:30N 50°44' W 127°19'815.8
2017-May-23 22:00N 50°50' W 127°27'2263.7
2017-May-23 22:00N 50°48' W 127°24'1020.6 270 / 281019.310.8 10.5 6.611.0
2017-May-23 21:30N 50°53' W 127°37'714.2
2017-May-23 21:00N 50°58' W 127°46'5 9.0
2017-May-23 20:30N 51°01' W 127°52'612.9
2017-May-23 20:00N 51°04' W 128°00'713.9
2017-May-23 19:30N 51°08' W 128°09'714.8
2017-May-23 19:00N 51°12' W 128°19'815.5
2017-May-23 18:30N 51°17' W 128°29'815.3
2017-May-23 18:00N 51°22' W 128°39'11671.6
2017-May-23 18:00N 51°12' W 128°30'2040.9 280 / 301016.410.8 10.0 7.912.0
2017-May-23 17:30N 51°28' W 128°48'1020.1
2017-May-23 17:00N 51°36' W 128°59'1019.8
2017-May-23 16:30N 51°43' W 129°10'1019.9
2017-May-23 16:00N 51°50' W 129°20'3014.8
2017-May-23 14:00N 52°12' W 129°54'13218.9 230 / 401012.310.8 10.5 9.510.0
2017-May-23 07:00N 54°18' W 131°00'180 7.5 180 / 331014.2 2.2 10.010.010.0
2017-May-22 07:00N 56°36' W 134°24'6917.2 180 / 301020.210.8 8.5 7.5 9.0
2017-May-22 03:00N 57°42' W 133°48'84 4.2 180 / 351018.010.8 10.0 8.5 7.0
2017-May-21 07:00N 58°54' W 135°12'3 0.2 010 / 81012.110.8 8.5 7.510.0
2017-May-20 11:00N 58°54' W 135°06'4210.6 180 / 151019.110.8 9.5 8.611.0
2017-May-20 07:00N 58°12' W 134°54'98 4.9 160 / 171020.110.8 8.5 5.510.0
2017-May-19 11:00N 58°24' W 138°00'9824.6 200 / 71019.310.8 7.0 4.910.0
2017-May-19 07:00N 59°54' W 139°18'74 6.1 180 / 71019.010.8 7.0 6.013.0
2017-May-18 19:00N 59°30' W 141°36'6416.0 120 / 201017.210.8 8.5 5.110.0
2017-May-18 15:00N 59°30' W 143°42'6817.0 130 / 61015.310.8 7.5 3.2 9.0
2017-May-18 11:00N 59°54' W 145°48'   120 / 101015.4 5.4 7.0 6.0 9.0

Dump ship's entire track history